Time;durP1;ratioP1;P1;durP2;ratioP2;P2;SDS_P1;SDS_P2;PMS_P1;PMS_P2;Temp;Humidity;BMP_temperature;BMP_pressure;BME280_temperature;BME280_humidity;BME280_pressure;Samples;Min_cycle;Max_cycle;Signal;HPM_P1;HPM_P2
2022/01/05 00:00:10;;;;;;;2.55;2.35;;;;;;;;;;4995409;28;20207;-80
2022/01/05 00:02:39;;;;;;;1.95;1.80;;;;;;;;;;4994945;28;20214;-80
2022/01/05 00:05:08;;;;;;;3.13;2.28;;;;;;;;;;4995497;28;20200;-79
2022/01/05 00:07:35;;;;;;;2.28;2.08;;;;;;;;;;4995091;28;20226;-80
2022/01/05 00:10:03;;;;;;;2.55;2.35;;;;;;;;;;4994708;28;20565;-79
2022/01/05 00:12:31;;;;;;;1.90;1.80;;;;;;;;;;4995387;28;20188;-80
2022/01/05 00:14:58;;;;;;;2.85;2.33;;;;;;;;;;4993844;28;20232;-80
2022/01/05 00:17:27;;;;;;;2.83;2.50;;;;;;;;;;4994493;28;20223;-80
2022/01/05 00:19:55;;;;;;;3.65;3.10;;;;;;;;;;4995220;28;20210;-80
2022/01/05 00:22:22;;;;;;;2.75;2.08;;;;;;;;;;4994836;28;20207;-80
2022/01/05 00:24:50;;;;;;;1.70;1.60;;;;;;;;;;4995073;28;20672;-80
2022/01/05 00:27:18;;;;;;;2.00;1.67;;;;;;;;;;4993780;28;20223;-80
2022/01/05 00:29:45;;;;;;;4.65;2.25;;;;;;;;;;4994780;28;20207;-80
2022/01/05 00:32:13;;;;;;;1.88;1.27;;;;;;;;;;4994742;28;20210;-80
2022/01/05 00:34:42;;;;;;;1.80;1.70;;;;;;;;;;4994765;28;20223;-80
2022/01/05 00:37:09;;;;;;;2.97;1.75;;;;;;;;;;4994108;28;20230;-81
2022/01/05 00:39:37;;;;;;;3.22;2.25;;;;;;;;;;4994633;28;20206;-80
2022/01/05 00:42:06;;;;;;;2.65;1.77;;;;;;;;;;4994870;28;20203;-80
2022/01/05 00:44:33;;;;;;;2.97;2.60;;;;;;;;;;4994443;28;20188;-80
2022/01/05 00:47:01;;;;;;;2.35;2.15;;;;;;;;;;4994882;28;20223;-80
2022/01/05 00:49:28;;;;;;;5.53;2.88;;;;;;;;;;4994923;28;20195;-80
2022/01/05 00:51:57;;;;;;;1.90;1.40;;;;;;;;;;4994243;28;20204;-80
2022/01/05 00:54:24;;;;;;;5.15;2.30;;;;;;;;;;4994935;28;20635;-80
2022/01/05 00:56:52;;;;;;;4.45;1.70;;;;;;;;;;4994625;28;20246;-80
2022/01/05 00:59:19;;;;;;;5.47;3.00;;;;;;;;;;4994353;28;20231;-80
2022/01/05 01:01:46;;;;;;;4.05;2.40;;;;;;;;;;4994267;28;20203;-80
2022/01/05 01:04:14;;;;;;;2.50;1.80;;;;;;;;;;4994897;28;20203;-80
2022/01/05 01:06:41;;;;;;;3.97;2.10;;;;;;;;;;4994627;28;20246;-81
2022/01/05 01:09:10;;;;;;;2.33;1.55;;;;;;;;;;4994012;28;20200;-81
2022/01/05 01:11:37;;;;;;;1.65;1.55;;;;;;;;;;4994533;28;20286;-81
2022/01/05 01:14:05;;;;;;;2.63;1.65;;;;;;;;;;4994685;28;20192;-80
2022/01/05 01:16:32;;;;;;;3.22;1.85;;;;;;;;;;4994030;28;20231;-80
2022/01/05 01:19:00;;;;;;;2.60;1.80;;;;;;;;;;4994452;28;20670;-81
2022/01/05 01:21:27;;;;;;;5.65;2.35;;;;;;;;;;4994442;28;20203;-80
2022/01/05 01:23:55;;;;;;;2.95;1.90;;;;;;;;;;4994436;28;20658;-80
2022/01/05 01:26:29;;;;;;;3.75;2.00;;;;;;;;;;4995762;28;20729;-80
2022/01/05 01:28:57;;;;;;;8.15;2.67;;;;;;;;;;4997965;28;20655;-80
2022/01/05 01:31:24;;;;;;;4.32;2.65;;;;;;;;;;4998495;28;20695;-81
2022/01/05 01:33:52;;;;;;;3.80;2.25;;;;;;;;;;4997994;28;20208;-80
2022/01/05 01:36:20;;;;;;;1.70;1.55;;;;;;;;;;4997647;28;20226;-81
2022/01/05 01:38:48;;;;;;;2.88;2.08;;;;;;;;;;4998469;28;20187;-80
2022/01/05 01:41:15;;;;;;;1.73;1.55;;;;;;;;;;4998162;28;20204;-80
2022/01/05 01:43:44;;;;;;;6.07;1.83;;;;;;;;;;4997886;28;20214;-81
2022/01/05 01:46:11;;;;;;;3.15;2.08;;;;;;;;;;4998397;28;20658;-80
2022/01/05 01:48:40;;;;;;;3.58;2.30;;;;;;;;;;4997637;28;20204;-80
2022/01/05 01:51:07;;;;;;;2.40;1.75;;;;;;;;;;4997947;28;20643;-80
2022/01/05 01:53:35;;;;;;;2.63;1.45;;;;;;;;;;4997887;28;20636;-80
2022/01/05 01:56:05;;;;;;;2.35;1.70;;;;;;;;;;4997724;28;20231;-80
2022/01/05 01:58:35;;;;;;;10.35;3.15;;;;;;;;;;4997606;28;20239;-80
2022/01/05 02:01:05;;;;;;;3.60;1.80;;;;;;;;;;4997409;28;20187;-81
2022/01/05 02:03:32;;;;;;;2.72;1.50;;;;;;;;;;4997470;28;20207;-80
2022/01/05 02:06:00;;;;;;;3.80;1.70;;;;;;;;;;4997830;28;20564;-80
2022/01/05 02:08:28;;;;;;;1.60;1.42;;;;;;;;;;4997591;28;20188;-80
2022/01/05 02:10:56;;;;;;;4.80;1.58;;;;;;;;;;4997344;28;20215;-80
2022/01/05 02:13:23;;;;;;;1.85;1.40;;;;;;;;;;4997067;28;20546;-80
2022/01/05 02:15:51;;;;;;;1.20;1.10;;;;;;;;;;4996510;28;20232;-80
2022/01/05 02:21:07;;;;;;;2.15;1.30;;;;;;;;;;4995949;28;20206;-80
2022/01/05 02:23:35;;;;;;;1.63;1.10;;;;;;;;;;4997384;28;20188;-80
2022/01/05 02:26:04;;;;;;;2.88;1.05;;;;;;;;;;4997317;28;20214;-80
2022/01/05 02:28:31;;;;;;;0.90;0.90;;;;;;;;;;4997391;28;20196;-79
2022/01/05 02:31:01;;;;;;;2.05;1.20;;;;;;;;;;4997214;28;20192;-79
2022/01/05 02:33:29;;;;;;;2.08;1.00;;;;;;;;;;4997230;28;20286;-79
2022/01/05 02:35:56;;;;;;;1.73;1.27;;;;;;;;;;4996610;28;20231;-79
2022/01/05 02:38:25;;;;;;;1.60;0.90;;;;;;;;;;4995744;28;20203;-79
2022/01/05 02:40:53;;;;;;;1.20;1.10;;;;;;;;;;4997461;28;20599;-79
2022/01/05 02:43:21;;;;;;;0.75;0.75;;;;;;;;;;4996094;28;20568;-79
2022/01/05 02:45:49;;;;;;;1.48;1.00;;;;;;;;;;4997113;28;20184;-79
2022/01/05 02:48:17;;;;;;;1.00;1.00;;;;;;;;;;4996460;28;20737;-79
2022/01/05 02:50:44;;;;;;;1.55;1.45;;;;;;;;;;4995757;28;20211;-80
2022/01/05 02:53:11;;;;;;;1.20;1.17;;;;;;;;;;4996849;28;20204;-80
2022/01/05 02:55:40;;;;;;;1.63;1.52;;;;;;;;;;4996130;28;20566;-79
2022/01/05 02:58:10;;;;;;;2.10;1.33;;;;;;;;;;4996041;28;20269;-80
2022/01/05 03:00:38;;;;;;;1.67;1.27;;;;;;;;;;4995281;28;20211;-80
2022/01/05 03:03:05;;;;;;;1.55;1.10;;;;;;;;;;4993587;28;20203;-79
2022/01/05 03:05:32;;;;;;;1.20;1.10;;;;;;;;;;4994443;28;20222;-79
2022/01/05 03:08:00;;;;;;;1.10;1.10;;;;;;;;;;4994360;28;20590;-79
2022/01/05 03:10:27;;;;;;;0.90;0.90;;;;;;;;;;4993342;28;20207;-79
2022/01/05 03:12:56;;;;;;;1.17;1.13;;;;;;;;;;4994708;28;20210;-79
2022/01/05 03:15:24;;;;;;;0.80;0.80;;;;;;;;;;4994075;28;20772;-79
2022/01/05 03:17:51;;;;;;;2.35;0.80;;;;;;;;;;5008287;28;20227;-79
2022/01/05 03:20:20;;;;;;;1.10;1.10;;;;;;;;;;5014854;28;20203;-79
2022/01/05 03:22:48;;;;;;;1.98;1.10;;;;;;;;;;5015657;28;20207;-79
2022/01/05 03:25:17;;;;;;;1.30;1.30;;;;;;;;;;5015570;28;20222;-80
2022/01/05 03:27:45;;;;;;;4.00;2.20;;;;;;;;;;5016110;28;20254;-79
2022/01/05 03:30:17;;;;;;;1.45;0.98;;;;;;;;;;5014934;28;20591;-79
2022/01/05 03:33:05;;;;;;;1.27;1.08;;;;;;;;;;5015009;28;20210;-80
2022/01/05 03:35:35;;;;;;;1.25;1.10;;;;;;;;;;5015710;28;20207;-79
2022/01/05 03:38:04;;;;;;;4.07;1.65;;;;;;;;;;5015444;28;20689;-79
2022/01/05 03:40:34;;;;;;;4.53;1.30;;;;;;;;;;5015572;28;20207;-80
2022/01/05 03:43:02;;;;;;;2.13;1.33;;;;;;;;;;5014997;28;20203;-79
2022/01/05 03:45:31;;;;;;;0.98;0.98;;;;;;;;;;5014979;28;20258;-80
2022/01/05 03:47:59;;;;;;;1.77;0.85;;;;;;;;;;4997247;28;20215;-79
2022/01/05 03:50:26;;;;;;;1.75;1.00;;;;;;;;;;4995198;28;20212;-79
2022/01/05 03:52:54;;;;;;;1.73;1.15;;;;;;;;;;4995491;28;20244;-79
2022/01/05 03:55:21;;;;;;;2.13;1.20;;;;;;;;;;4994175;28;20206;-79
2022/01/05 03:57:49;;;;;;;1.70;1.48;;;;;;;;;;4992947;28;20227;-80
2022/01/05 04:00:18;;;;;;;2.55;1.25;;;;;;;;;;4995302;28;20560;-79
2022/01/05 04:02:46;;;;;;;1.40;1.10;;;;;;;;;;4995006;28;20230;-80
2022/01/05 04:05:14;;;;;;;1.48;1.25;;;;;;;;;;4994698;28;20203;-79
2022/01/05 04:07:41;;;;;;;3.25;1.23;;;;;;;;;;4995409;28;20702;-80
2022/01/05 04:10:10;;;;;;;1.38;1.10;;;;;;;;;;4995288;28;20695;-79
2022/01/05 04:12:37;;;;;;;3.58;1.73;;;;;;;;;;4995801;28;20192;-80
2022/01/05 04:15:06;;;;;;;4.28;1.48;;;;;;;;;;4993965;28;20713;-79
2022/01/05 04:17:33;;;;;;;4.25;1.73;;;;;;;;;;4995355;28;20228;-79
2022/01/05 04:20:02;;;;;;;3.33;1.35;;;;;;;;;;4995192;28;20670;-79
2022/01/05 04:22:30;;;;;;;2.50;1.70;;;;;;;;;;4995000;28;20192;-80
2022/01/05 04:24:57;;;;;;;7.93;3.00;;;;;;;;;;4995945;28;20199;-79
2022/01/05 04:27:25;;;;;;;5.13;2.00;;;;;;;;;;4995468;28;20255;-79
2022/01/05 04:29:52;;;;;;;7.07;3.20;;;;;;;;;;4995436;28;20203;-80
2022/01/05 04:32:20;;;;;;;5.45;2.65;;;;;;;;;;4995110;28;20208;-80
2022/01/05 04:41:23;;;;;;;5.47;2.80;;;;;;;;;;4878340;29;20215;-80
2022/01/05 04:47:59;;;;;;;5.82;2.60;;;;;;;;;;4872986;29;20227;-79
2022/01/05 05:15:01;;;;;;;4.72;2.72;;;;;;;;;;4774710;30;20206;-79
2022/01/05 05:18:05;;;;;;;5.80;2.83;;;;;;;;;;4848155;29;20323;-80
2022/01/05 05:29:04;;;;;;;6.22;3.58;;;;;;;;;;4781458;29;20233;-81
2022/01/05 05:53:23;;;;;;;4.28;2.63;;;;;;;;;;5042244;28;20224;-81
2022/01/05 05:55:50;;;;;;;8.68;3.50;;;;;;;;;;5048418;28;20768;-80
2022/01/05 05:58:17;;;;;;;4.90;2.60;;;;;;;;;;5048765;28;20221;-81
2022/01/05 06:00:45;;;;;;;5.57;2.75;;;;;;;;;;5111524;28;20196;-81
2022/01/05 06:03:12;;;;;;;9.10;4.15;;;;;;;;;;5112505;28;20203;-83
2022/01/05 06:05:40;;;;;;;5.15;4.45;;;;;;;;;;5112409;28;20191;-81
2022/01/05 06:08:08;;;;;;;4.93;2.90;;;;;;;;;;5111313;28;20224;-80
2022/01/05 06:10:37;;;;;;;4.47;2.63;;;;;;;;;;5110966;28;20667;-79
2022/01/05 06:13:04;;;;;;;4.40;3.05;;;;;;;;;;5111607;28;20211;-80
2022/01/05 06:15:32;;;;;;;9.70;3.95;;;;;;;;;;5111451;28;20180;-80
2022/01/05 06:18:00;;;;;;;3.20;2.38;;;;;;;;;;5111310;28;20224;-80
2022/01/05 06:20:27;;;;;;;4.00;2.72;;;;;;;;;;5106760;28;20188;-80
2022/01/05 06:22:54;;;;;;;7.40;3.15;;;;;;;;;;5111190;28;20200;-79
2022/01/05 06:25:22;;;;;;;5.50;3.53;;;;;;;;;;5111225;28;20211;-79
2022/01/05 06:27:51;;;;;;;5.65;3.53;;;;;;;;;;5110714;28;20227;-79
2022/01/05 06:30:18;;;;;;;4.35;2.80;;;;;;;;;;5111400;28;20207;-79
2022/01/05 06:32:47;;;;;;;4.53;2.78;;;;;;;;;;5110865;28;20206;-80
2022/01/05 06:35:16;;;;;;;3.92;3.17;;;;;;;;;;5110896;28;20314;-80
2022/01/05 06:37:44;;;;;;;4.10;3.65;;;;;;;;;;5110862;28;20310;-80
2022/01/05 06:40:12;;;;;;;6.95;2.80;;;;;;;;;;5111033;28;20184;-79
2022/01/05 06:42:40;;;;;;;6.63;3.35;;;;;;;;;;5109997;28;20559;-79
2022/01/05 06:45:10;;;;;;;3.58;3.00;;;;;;;;;;5103593;28;20730;-79
2022/01/05 06:47:38;;;;;;;4.00;2.65;;;;;;;;;;5097352;28;20216;-79
2022/01/05 06:50:06;;;;;;;6.32;4.32;;;;;;;;;;5096441;28;20195;-79
2022/01/05 06:52:34;;;;;;;3.92;2.78;;;;;;;;;;5096000;28;20197;-79
2022/01/05 06:55:01;;;;;;;7.07;3.08;;;;;;;;;;5096295;28;20204;-79
2022/01/05 06:57:29;;;;;;;6.40;3.28;;;;;;;;;;5095771;28;20213;-79
2022/01/05 06:59:56;;;;;;;5.97;3.72;;;;;;;;;;5095555;28;20203;-79
2022/01/05 07:02:25;;;;;;;7.07;3.80;;;;;;;;;;5086566;28;20196;-79
2022/01/05 07:04:52;;;;;;;7.82;3.55;;;;;;;;;;5090182;28;20684;-79
2022/01/05 07:07:20;;;;;;;4.28;2.22;;;;;;;;;;5095166;28;20227;-79
2022/01/05 07:09:47;;;;;;;4.60;3.47;;;;;;;;;;5095064;28;20200;-78
2022/01/05 07:12:16;;;;;;;4.35;2.15;;;;;;;;;;5095873;28;20208;-79
2022/01/05 07:14:43;;;;;;;4.32;2.83;;;;;;;;;;5095995;28;20216;-78
2022/01/05 07:17:10;;;;;;;3.10;2.53;;;;;;;;;;5094953;28;20225;-79
2022/01/05 07:19:39;;;;;;;4.53;2.90;;;;;;;;;;5094722;28;20200;-79
2022/01/05 07:22:06;;;;;;;7.88;3.42;;;;;;;;;;5095666;28;20200;-80
2022/01/05 07:24:34;;;;;;;3.88;1.98;;;;;;;;;;5095218;28;20218;-78
2022/01/05 07:27:01;;;;;;;10.75;3.63;;;;;;;;;;5075751;28;20221;-79
2022/01/05 07:29:29;;;;;;;3.88;2.55;;;;;;;;;;5074701;28;20215;-79
2022/01/05 07:31:56;;;;;;;4.53;2.47;;;;;;;;;;5081999;28;20196;-79
2022/01/05 07:34:24;;;;;;;3.65;2.67;;;;;;;;;;5094929;28;20228;-79
2022/01/05 07:36:53;;;;;;;5.97;2.50;;;;;;;;;;5095737;28;20217;-79
2022/01/05 07:39:27;;;;;;;2.70;1.90;;;;;;;;;;5095859;28;20548;-80
2022/01/05 07:41:55;;;;;;;2.67;2.13;;;;;;;;;;5095710;28;20192;-79
2022/01/05 07:44:22;;;;;;;2.78;1.98;;;;;;;;;;5095674;28;20236;-80
2022/01/05 08:28:40;;;;;;;3.90;1.73;;;;;;;;;;4951729;28;20235;-79
2022/01/05 08:32:27;;;;;;;;;;;;;;;;;;;;;
2022/01/05 08:36:22;;;;;;;1.30;1.20;;;;;;;;;;4973608;28;20236;-79
2022/01/05 08:38:51;;;;;;;3.60;1.98;;;;;;;;;;4841756;29;20255;-80
2022/01/05 08:41:19;;;;;;;3.28;1.30;;;;;;;;;;4841852;29;20193;-80
2022/01/05 08:43:47;;;;;;;1.75;1.30;;;;;;;;;;4945751;28;20267;-80
2022/01/05 08:46:15;;;;;;;5.45;1.85;;;;;;;;;;5044159;28;20704;-80
2022/01/05 08:48:43;;;;;;;3.97;1.98;;;;;;;;;;5054330;28;20580;-80
2022/01/05 08:51:10;;;;;;;4.25;2.40;;;;;;;;;;5054473;28;20268;-81
2022/01/05 08:53:38;;;;;;;3.33;1.77;;;;;;;;;;5054461;28;20186;-81
2022/01/05 08:56:07;;;;;;;3.85;1.60;;;;;;;;;;5054313;28;20202;-81
2022/01/05 08:58:35;;;;;;;3.22;1.85;;;;;;;;;;5044733;28;20646;-80
2022/01/05 09:01:02;;;;;;;2.78;1.80;;;;;;;;;;5034037;28;20209;-80
2022/01/05 09:03:30;;;;;;;1.92;1.77;;;;;;;;;;5033201;28;20210;-80
2022/01/05 09:05:57;;;;;;;2.58;1.65;;;;;;;;;;5033745;28;20194;-80
2022/01/05 09:08:24;;;;;;;5.38;2.10;;;;;;;;;;5034082;28;20191;-81
2022/01/05 09:10:52;;;;;;;6.18;2.00;;;;;;;;;;5034598;28;20297;-81
2022/01/05 09:13:22;;;;;;;4.93;1.45;;;;;;;;;;5034030;28;20193;-80
2022/01/05 09:15:50;;;;;;;2.35;1.92;;;;;;;;;;5034575;28;20246;-80
2022/01/05 09:18:42;;;;;;;;;;;;;;;;;;;;;
2022/01/05 09:32:09;;;;;;;7.03;2.17;;;;;;;;;;4967350;28;20205;-80
2022/01/05 09:34:37;;;;;;;2.28;2.00;;;;;;;;;;5034424;28;20205;-80
2022/01/05 09:37:11;;;;;;;4.38;1.80;;;;;;;;;;5035046;28;20253;-81
2022/01/05 09:42:24;;;;;;;1.77;1.52;;;;;;;;;;5015258;28;20326;-81
2022/01/05 09:44:53;;;;;;;3.58;1.90;;;;;;;;;;5020017;28;20227;-82
2022/01/05 09:47:51;;;;;;;3.17;2.00;;;;;;;;;;5014786;28;20215;-80
2022/01/05 09:50:20;;;;;;;2.45;1.80;;;;;;;;;;5001667;28;20209;-80
2022/01/05 09:52:48;;;;;;;2.72;2.45;;;;;;;;;;5015527;28;20199;-81
2022/01/05 09:55:17;;;;;;;3.88;2.10;;;;;;;;;;5015161;28;20589;-80
2022/01/05 09:57:46;;;;;;;1.77;1.60;;;;;;;;;;5014974;28;20218;-80
2022/01/05 10:00:16;;;;;;;2.83;1.50;;;;;;;;;;5023233;28;20209;-80
2022/01/05 10:02:50;;;;;;;2.53;1.70;;;;;;;;;;5023910;28;20199;-80
2022/01/05 10:05:19;;;;;;;3.03;2.17;;;;;;;;;;5025783;28;20203;-80
2022/01/05 10:10:34;;;;;;;3.90;2.28;;;;;;;;;;5026032;28;20206;-79
2022/01/05 10:13:03;;;;;;;3.35;1.60;;;;;;;;;;5036845;28;20209;-82
2022/01/05 10:15:30;;;;;;;2.70;1.85;;;;;;;;;;5036683;28;20305;-82
2022/01/05 10:18:13;;;;;;;6.25;2.10;;;;;;;;;;5034813;28;20226;-81
2022/01/05 10:20:59;;;;;;;3.75;2.22;;;;;;;;;;5036533;28;20202;-81
2022/01/05 10:23:41;;;;;;;2.75;1.98;;;;;;;;;;5037830;28;20198;-81
2022/01/05 10:26:36;;;;;;;4.13;2.15;;;;;;;;;;5017059;28;20238;-81
2022/01/05 10:29:07;;;;;;;2.95;2.00;;;;;;;;;;4999346;28;20234;-82
2022/01/05 10:31:38;;;;;;;3.67;2.10;;;;;;;;;;5017481;28;20206;-81
2022/01/05 10:34:18;;;;;;;10.63;3.22;;;;;;;;;;5023634;28;20186;-81
2022/01/05 10:36:47;;;;;;;2.38;2.22;;;;;;;;;;5037528;28;20222;-81
2022/01/05 10:39:15;;;;;;;2.90;2.70;;;;;;;;;;5038140;28;20186;-80
2022/01/05 10:41:44;;;;;;;4.82;2.70;;;;;;;;;;5037741;28;20207;-82
2022/01/05 10:44:17;;;;;;;5.07;2.58;;;;;;;;;;5038240;28;20202;-81
2022/01/05 11:08:27;;;;;;;2.63;2.42;;;;;;;;;;4956049;28;20297;-80
2022/01/05 11:10:54;;;;;;;5.55;2.45;;;;;;;;;;4973351;28;20203;-80
2022/01/05 11:13:21;;;;;;;7.40;3.53;;;;;;;;;;5011006;28;20203;-81
2022/01/05 11:15:49;;;;;;;4.95;4.43;;;;;;;;;;5017178;28;20211;-81
2022/01/05 11:18:21;;;;;;;3.20;2.90;;;;;;;;;;5017811;28;20223;-81
2022/01/05 11:20:52;;;;;;;2.63;2.38;;;;;;;;;;5017142;28;20187;-81
2022/01/05 11:23:22;;;;;;;3.95;2.38;;;;;;;;;;5016859;28;20198;-81
2022/01/05 11:25:51;;;;;;;5.15;3.92;;;;;;;;;;5014932;28;20195;-81
2022/01/05 11:28:20;;;;;;;5.35;3.75;;;;;;;;;;5017432;28;20711;-81
2022/01/05 11:30:50;;;;;;;13.48;6.32;;;;;;;;;;5017287;28;20191;-81
2022/01/05 11:33:20;;;;;;;8.23;4.97;;;;;;;;;;5016886;28;20183;-81
2022/01/05 11:35:47;;;;;;;5.68;2.80;;;;;;;;;;5017827;28;20712;-81
2022/01/05 11:38:15;;;;;;;2.85;2.58;;;;;;;;;;5017337;28;20219;-80
2022/01/05 11:40:52;;;;;;;3.35;2.90;;;;;;;;;;5017301;28;20591;-80
2022/01/05 11:43:27;;;;;;;3.85;2.53;;;;;;;;;;5017099;28;20195;-80
2022/01/05 11:45:55;;;;;;;4.43;3.53;;;;;;;;;;5017327;28;20258;-80
2022/01/05 11:48:27;;;;;;;4.15;3.70;;;;;;;;;;5017367;28;20198;-81
2022/01/05 11:50:57;;;;;;;2.95;2.08;;;;;;;;;;5017087;28;20199;-81
2022/01/05 11:53:48;;;;;;;2.30;2.10;;;;;;;;;;5017375;28;20595;-81
2022/01/05 11:56:20;;;;;;;2.28;2.08;;;;;;;;;;5002001;28;20227;-80
2022/01/05 11:59:02;;;;;;;2.80;2.40;;;;;;;;;;5016227;28;20218;-80
2022/01/05 12:01:34;;;;;;;4.78;2.17;;;;;;;;;;5016023;28;20194;-79
2022/01/05 12:04:14;;;;;;;2.33;1.80;;;;;;;;;;5016551;28;20219;-80
2022/01/05 12:07:06;;;;;;;3.67;1.73;;;;;;;;;;5007190;28;20222;-81
2022/01/05 12:09:37;;;;;;;2.33;1.58;;;;;;;;;;5016570;28;20683;-81
2022/01/05 12:12:27;;;;;;;1.70;1.60;;;;;;;;;;5017115;28;20195;-80
2022/01/05 12:14:54;;;;;;;1.77;1.67;;;;;;;;;;5010015;28;20207;-80
2022/01/05 12:17:23;;;;;;;2.08;1.90;;;;;;;;;;5015953;28;20227;-81
2022/01/05 12:20:14;;;;;;;1.83;1.73;;;;;;;;;;5015993;28;20295;-79
2022/01/05 12:22:43;;;;;;;1.65;1.55;;;;;;;;;;5016941;28;20225;-79
2022/01/05 12:25:17;;;;;;;1.50;1.40;;;;;;;;;;5016865;28;20200;-80
2022/01/05 12:28:08;;;;;;;1.95;1.85;;;;;;;;;;5016725;28;20273;-80
2022/01/05 12:30:42;;;;;;;2.72;1.92;;;;;;;;;;4996292;28;20209;-82
2022/01/05 12:33:20;;;;;;;1.70;1.40;;;;;;;;;;5016598;28;20198;-80
2022/01/05 12:35:59;;;;;;;1.40;1.30;;;;;;;;;;5016790;28;20206;-80
2022/01/05 12:38:51;;;;;;;2.63;1.60;;;;;;;;;;4996859;28;20228;-81
2022/01/05 12:41:40;;;;;;;2.78;1.60;;;;;;;;;;4996807;28;20572;-81
2022/01/05 12:44:44;;;;;;;1.20;1.10;;;;;;;;;;5012718;28;20207;-81
2022/01/05 12:47:12;;;;;;;1.27;1.23;;;;;;;;;;5010199;28;20223;-80
2022/01/05 12:49:40;;;;;;;1.45;1.35;;;;;;;;;;5016477;28;20227;-80
2022/01/05 12:52:14;;;;;;;1.88;1.52;;;;;;;;;;5016352;28;20710;-80
2022/01/05 12:54:47;;;;;;;2.28;2.08;;;;;;;;;;5016892;28;20267;-80
2022/01/05 12:57:18;;;;;;;1.52;1.42;;;;;;;;;;5016290;28;20770;-81
2022/01/05 12:59:49;;;;;;;1.33;1.33;;;;;;;;;;5016075;28;20199;-81
2022/01/05 13:02:23;;;;;;;1.30;1.30;;;;;;;;;;5015989;28;20194;-80
2022/01/05 13:04:51;;;;;;;1.50;1.40;;;;;;;;;;5015788;28;20211;-81
2022/01/05 13:07:22;;;;;;;1.10;1.10;;;;;;;;;;5007073;28;20220;-81
2022/01/05 13:09:52;;;;;;;1.40;1.30;;;;;;;;;;4996240;28;20646;-82
2022/01/05 13:12:22;;;;;;;1.25;1.25;;;;;;;;;;4994821;28;20180;-80
2022/01/05 13:14:52;;;;;;;1.17;1.17;;;;;;;;;;4995336;28;20204;-80
2022/01/05 13:17:22;;;;;;;1.33;1.15;;;;;;;;;;4998070;28;20249;-81
2022/01/05 13:19:55;;;;;;;1.00;1.00;;;;;;;;;;5013996;28;20206;-81
2022/01/05 13:22:28;;;;;;;1.30;1.20;;;;;;;;;;5013699;28;20202;-80
2022/01/05 13:25:03;;;;;;;0.90;0.90;;;;;;;;;;5013070;28;20661;-81
2022/01/05 13:27:34;;;;;;;1.58;1.48;;;;;;;;;;5015345;28;20281;-81
2022/01/05 13:30:04;;;;;;;1.33;1.20;;;;;;;;;;5015439;28;20203;-81
2022/01/05 13:32:32;;;;;;;1.27;1.17;;;;;;;;;;5015318;28;20658;-81
2022/01/05 13:35:10;;;;;;;1.05;1.02;;;;;;;;;;5014407;28;20209;-82
2022/01/05 13:37:41;;;;;;;1.25;1.13;;;;;;;;;;5015112;28;20234;-81
2022/01/05 13:40:12;;;;;;;0.90;0.90;;;;;;;;;;5015251;28;20195;-81
2022/01/05 13:42:47;;;;;;;0.90;0.90;;;;;;;;;;5014965;28;20690;-81
2022/01/05 13:45:21;;;;;;;1.20;1.10;;;;;;;;;;5015180;28;20194;-81
2022/01/05 13:47:49;;;;;;;1.10;1.10;;;;;;;;;;5015073;28;20215;-81
2022/01/05 13:50:21;;;;;;;1.08;1.08;;;;;;;;;;5015622;28;20245;-81
2022/01/05 13:53:00;;;;;;;0.73;0.73;;;;;;;;;;5015254;28;20857;-82
2022/01/05 13:55:33;;;;;;;0.90;0.90;;;;;;;;;;5015681;28;20205;-82
2022/01/05 13:58:10;;;;;;;1.08;1.08;;;;;;;;;;5018789;28;20226;-81
2022/01/05 14:00:39;;;;;;;1.65;1.10;;;;;;;;;;5019202;28;20286;-82
2022/01/05 14:03:07;;;;;;;0.90;0.90;;;;;;;;;;5019256;28;20265;-81
2022/01/05 14:05:35;;;;;;;1.00;1.00;;;;;;;;;;5019312;28;20179;-82
2022/01/05 14:08:07;;;;;;;0.80;0.80;;;;;;;;;;5019696;28;20230;-83
2022/01/05 14:10:37;;;;;;;1.35;0.88;;;;;;;;;;5018994;28;20206;-82
2022/01/05 14:13:06;;;;;;;0.90;0.90;;;;;;;;;;5019498;28;20207;-82
2022/01/05 14:15:34;;;;;;;0.90;0.90;;;;;;;;;;5019936;28;20204;-83
2022/01/05 14:18:09;;;;;;;0.75;0.75;;;;;;;;;;5019145;28;20222;-83
2022/01/05 14:20:45;;;;;;;0.70;0.70;;;;;;;;;;5019016;28;20206;-83
2022/01/05 14:23:17;;;;;;;0.98;0.88;;;;;;;;;;5018841;28;20198;-83
2022/01/05 14:25:49;;;;;;;0.77;0.77;;;;;;;;;;5019830;28;20207;-84
2022/01/05 14:28:24;;;;;;;0.70;0.70;;;;;;;;;;5019573;28;20227;-83
2022/01/05 14:30:58;;;;;;;1.00;0.80;;;;;;;;;;5019271;28;20210;-83
2022/01/05 14:33:38;;;;;;;1.10;1.10;;;;;;;;;;5017812;28;20598;-83
2022/01/05 14:36:19;;;;;;;0.60;0.60;;;;;;;;;;5019250;28;20221;-83
2022/01/05 14:38:58;;;;;;;0.70;0.70;;;;;;;;;;5019038;28;20226;-83
2022/01/05 14:41:38;;;;;;;0.70;0.70;;;;;;;;;;5019120;28;20195;-83
2022/01/05 14:44:10;;;;;;;0.63;0.63;;;;;;;;;;5017777;28;20574;-83
2022/01/05 14:46:38;;;;;;;0.80;0.80;;;;;;;;;;5017619;28;20602;-83
2022/01/05 14:49:07;;;;;;;0.70;0.70;;;;;;;;;;5018234;28;20231;-83
2022/01/05 14:51:35;;;;;;;0.80;0.68;;;;;;;;;;5018179;28;20203;-83
2022/01/05 14:54:04;;;;;;;0.80;0.80;;;;;;;;;;5018553;28;20210;-83
2022/01/05 14:56:33;;;;;;;0.60;0.60;;;;;;;;;;5016838;28;20229;-83
2022/01/05 14:59:01;;;;;;;0.60;0.60;;;;;;;;;;5017792;28;20230;-83
2022/01/05 15:01:31;;;;;;;0.75;0.75;;;;;;;;;;5017823;28;20203;-83
2022/01/05 15:03:59;;;;;;;0.70;0.70;;;;;;;;;;5017781;28;20221;-83
2022/01/05 15:06:27;;;;;;;0.70;0.70;;;;;;;;;;5017774;28;20399;-83
2022/01/05 15:08:54;;;;;;;2.40;1.50;;;;;;;;;;5017887;28;20227;-83
2022/01/05 15:11:23;;;;;;;0.57;0.57;;;;;;;;;;5018239;28;20234;-83
2022/01/05 15:13:50;;;;;;;1.65;0.95;;;;;;;;;;5018415;28;20210;-83
2022/01/05 15:16:17;;;;;;;0.60;0.60;;;;;;;;;;5019210;28;20595;-83
2022/01/05 15:18:45;;;;;;;0.70;0.70;;;;;;;;;;5018157;28;20226;-83
2022/01/05 15:21:13;;;;;;;1.08;0.73;;;;;;;;;;5016943;28;20206;-83
2022/01/05 15:23:41;;;;;;;0.68;0.68;;;;;;;;;;5017666;28;20214;-83
2022/01/05 15:26:11;;;;;;;0.73;0.73;;;;;;;;;;5018781;28;20279;-83
2022/01/05 15:28:41;;;;;;;0.60;0.60;;;;;;;;;;5018148;28;20682;-83
2022/01/05 15:31:09;;;;;;;0.77;0.77;;;;;;;;;;5018710;28;20203;-83
2022/01/05 15:33:37;;;;;;;0.70;0.70;;;;;;;;;;5020041;28;20242;-83
2022/01/05 15:36:05;;;;;;;1.25;0.80;;;;;;;;;;5018549;28;20210;-83
2022/01/05 15:38:33;;;;;;;0.70;0.70;;;;;;;;;;5016238;28;20255;-83
2022/01/05 15:41:00;;;;;;;0.82;0.82;;;;;;;;;;5016148;28;20224;-83
2022/01/05 15:43:27;;;;;;;0.93;0.93;;;;;;;;;;5015850;28;20203;-83
2022/01/05 15:45:56;;;;;;;0.88;0.88;;;;;;;;;;5015960;28;20210;-82
2022/01/05 15:48:24;;;;;;;0.77;0.77;;;;;;;;;;5016509;28;20234;-82
2022/01/05 15:50:52;;;;;;;0.60;0.60;;;;;;;;;;5016321;28;20210;-83
2022/01/05 15:53:20;;;;;;;0.70;0.70;;;;;;;;;;5016382;28;20199;-82
2022/01/05 15:55:53;;;;;;;0.52;0.52;;;;;;;;;;5014959;28;20191;-82
2022/01/05 16:01:19;;;;;;;0.70;0.70;;;;;;;;;;5036292;28;20231;-82
2022/01/05 16:03:49;;;;;;;1.17;0.80;;;;;;;;;;5035506;28;20206;-82
2022/01/05 16:06:17;;;;;;;0.70;0.70;;;;;;;;;;5021806;28;20209;-82
2022/01/05 16:08:45;;;;;;;1.52;0.80;;;;;;;;;;5015290;28;20199;-82
2022/01/05 16:11:13;;;;;;;1.08;0.98;;;;;;;;;;5016205;28;20191;-82
2022/01/05 16:13:41;;;;;;;1.05;0.90;;;;;;;;;;5015286;28;20209;-81
2022/01/05 16:16:10;;;;;;;1.08;1.08;;;;;;;;;;5027513;28;20202;-82
2022/01/05 16:18:38;;;;;;;0.85;0.85;;;;;;;;;;5034230;28;20612;-87
2022/01/05 16:21:09;;;;;;;0.95;0.95;;;;;;;;;;5035202;28;20189;-82
2022/01/05 16:23:37;;;;;;;0.70;0.70;;;;;;;;;;5035716;28;20282;-81
2022/01/05 16:26:05;;;;;;;1.40;1.00;;;;;;;;;;5022982;28;20207;-82
2022/01/05 16:28:32;;;;;;;0.90;0.90;;;;;;;;;;5015308;28;20195;-81
2022/01/05 16:31:00;;;;;;;1.50;1.10;;;;;;;;;;5015142;28;20566;-81
2022/01/05 16:33:29;;;;;;;2.13;1.05;;;;;;;;;;5015532;28;20183;-81
2022/01/05 16:35:57;;;;;;;1.30;1.20;;;;;;;;;;5026018;28;20202;-81
2022/01/05 16:38:26;;;;;;;1.10;1.10;;;;;;;;;;5027214;28;20218;-81
2022/01/05 16:40:54;;;;;;;1.00;1.00;;;;;;;;;;5015309;28;20211;-81
2022/01/05 16:43:21;;;;;;;1.90;1.80;;;;;;;;;;5014514;28;20325;-81
2022/01/05 16:45:49;;;;;;;1.40;1.30;;;;;;;;;;5024156;28;20220;-81
2022/01/05 16:48:16;;;;;;;1.35;1.25;;;;;;;;;;5034358;28;20214;-81
2022/01/05 16:50:45;;;;;;;1.00;1.00;;;;;;;;;;5034620;28;20205;-81
2022/01/05 16:53:12;;;;;;;1.13;1.08;;;;;;;;;;5034521;28;20203;-81
2022/01/05 16:55:40;;;;;;;1.42;1.27;;;;;;;;;;5025781;28;20198;-81
2022/01/05 17:00:52;;;;;;;1.00;1.00;;;;;;;;;;5014457;28;20217;-81
2022/01/05 17:03:20;;;;;;;1.50;1.30;;;;;;;;;;5013852;28;20205;-81
2022/01/05 17:05:49;;;;;;;1.33;1.23;;;;;;;;;;5022840;28;20277;-82
2022/01/05 17:08:20;;;;;;;1.25;1.15;;;;;;;;;;5033114;28;20228;-80
2022/01/05 17:10:47;;;;;;;1.45;1.35;;;;;;;;;;5033024;28;20262;-81
2022/01/05 17:13:16;;;;;;;2.42;1.85;;;;;;;;;;5033669;28;20202;-82
2022/01/05 17:15:44;;;;;;;1.10;1.10;;;;;;;;;;5024382;28;20214;-81
2022/01/05 17:18:12;;;;;;;1.63;1.30;;;;;;;;;;5014129;28;20226;-81
2022/01/05 17:20:40;;;;;;;2.90;2.03;;;;;;;;;;5014245;28;20203;-82
2022/01/05 17:23:10;;;;;;;2.35;1.83;;;;;;;;;;5015218;28;20187;-81
2022/01/05 17:25:37;;;;;;;1.65;1.10;;;;;;;;;;5005757;28;20214;-81
2022/01/05 17:28:05;;;;;;;2.60;1.60;;;;;;;;;;4999654;28;20225;-81
2022/01/05 17:30:35;;;;;;;2.33;1.77;;;;;;;;;;5014084;28;20183;-81
2022/01/05 17:33:02;;;;;;;2.10;1.75;;;;;;;;;;5014232;28;20191;-80
2022/01/05 17:35:31;;;;;;;1.83;1.65;;;;;;;;;;5013842;28;20214;-82
2022/01/05 17:38:00;;;;;;;1.45;1.35;;;;;;;;;;5014056;28;20222;-81